sensor_id;sensor_type;location;lat;lon;timestamp;P1;durP1;ratioP1;P2;durP2;ratioP2
75426;SDS011;64007;50.632;13.700;2023-01-26T00:01:28;33.35;;;14.10;;
75426;SDS011;64007;50.632;13.700;2023-01-26T00:03:55;38.38;;;15.73;;
75426;SDS011;64007;50.632;13.700;2023-01-26T00:06:21;40.35;;;16.70;;
75426;SDS011;64007;50.632;13.700;2023-01-26T00:08:48;40.53;;;17.13;;
75426;SDS011;64007;50.632;13.700;2023-01-26T00:11:17;36.67;;;15.82;;
75426;SDS011;64007;50.632;13.700;2023-01-26T00:13:45;32.10;;;15.30;;
75426;SDS011;64007;50.632;13.700;2023-01-26T00:16:13;37.42;;;15.68;;
75426;SDS011;64007;50.632;13.700;2023-01-26T00:18:40;36.50;;;15.23;;
75426;SDS011;64007;50.632;13.700;2023-01-26T00:21:07;41.35;;;15.38;;
75426;SDS011;64007;50.632;13.700;2023-01-26T00:23:36;32.13;;;14.65;;
75426;SDS011;64007;50.632;13.700;2023-01-26T00:26:02;36.38;;;15.13;;
75426;SDS011;64007;50.632;13.700;2023-01-26T00:28:31;39.15;;;16.27;;
75426;SDS011;64007;50.632;13.700;2023-01-26T00:31:03;37.00;;;15.02;;
75426;SDS011;64007;50.632;13.700;2023-01-26T00:33:30;41.20;;;16.23;;
75426;SDS011;64007;50.632;13.700;2023-01-26T00:35:55;38.53;;;16.85;;
75426;SDS011;64007;50.632;13.700;2023-01-26T00:38:21;38.13;;;16.15;;
75426;SDS011;64007;50.632;13.700;2023-01-26T00:40:47;38.38;;;16.02;;
75426;SDS011;64007;50.632;13.700;2023-01-26T00:43:13;37.63;;;15.32;;
75426;SDS011;64007;50.632;13.700;2023-01-26T00:45:39;32.72;;;15.00;;
75426;SDS011;64007;50.632;13.700;2023-01-26T00:48:05;37.38;;;16.10;;
75426;SDS011;64007;50.632;13.700;2023-01-26T00:50:31;39.00;;;15.98;;
75426;SDS011;64007;50.632;13.700;2023-01-26T00:52:58;35.72;;;15.90;;
75426;SDS011;64007;50.632;13.700;2023-01-26T00:55:24;35.30;;;15.77;;
75426;SDS011;64007;50.632;13.700;2023-01-26T00:57:57;39.42;;;15.50;;
75426;SDS011;64007;50.632;13.700;2023-01-26T01:00:23;42.83;;;15.98;;
75426;SDS011;64007;50.632;13.700;2023-01-26T01:02:50;35.28;;;15.52;;
75426;SDS011;64007;50.632;13.700;2023-01-26T01:05:16;40.78;;;15.25;;
75426;SDS011;64007;50.632;13.700;2023-01-26T01:07:42;43.95;;;15.77;;
75426;SDS011;64007;50.632;13.700;2023-01-26T01:10:07;32.17;;;14.18;;
75426;SDS011;64007;50.632;13.700;2023-01-26T01:12:34;38.63;;;15.35;;
75426;SDS011;64007;50.632;13.700;2023-01-26T01:15:00;33.40;;;15.55;;
75426;SDS011;64007;50.632;13.700;2023-01-26T01:17:26;31.00;;;15.48;;
75426;SDS011;64007;50.632;13.700;2023-01-26T01:19:52;33.80;;;13.95;;
75426;SDS011;64007;50.632;13.700;2023-01-26T01:22:17;34.97;;;14.93;;
75426;SDS011;64007;50.632;13.700;2023-01-26T01:24:43;35.17;;;15.07;;
75426;SDS011;64007;50.632;13.700;2023-01-26T01:27:09;39.05;;;16.05;;
75426;SDS011;64007;50.632;13.700;2023-01-26T01:29:34;37.30;;;15.93;;
75426;SDS011;64007;50.632;13.700;2023-01-26T01:32:00;36.40;;;15.80;;
75426;SDS011;64007;50.632;13.700;2023-01-26T01:34:26;34.55;;;16.17;;
75426;SDS011;64007;50.632;13.700;2023-01-26T01:36:52;36.05;;;15.48;;
75426;SDS011;64007;50.632;13.700;2023-01-26T01:39:17;40.53;;;14.52;;
75426;SDS011;64007;50.632;13.700;2023-01-26T01:41:43;38.42;;;15.60;;
75426;SDS011;64007;50.632;13.700;2023-01-26T01:44:16;35.13;;;14.98;;
75426;SDS011;64007;50.632;13.700;2023-01-26T01:46:48;44.38;;;16.23;;
75426;SDS011;64007;50.632;13.700;2023-01-26T01:49:23;34.30;;;15.00;;
75426;SDS011;64007;50.632;13.700;2023-01-26T01:51:54;36.63;;;14.05;;
75426;SDS011;64007;50.632;13.700;2023-01-26T01:54:31;36.40;;;14.25;;
75426;SDS011;64007;50.632;13.700;2023-01-26T01:57:02;34.50;;;15.32;;
75426;SDS011;64007;50.632;13.700;2023-01-26T01:59:48;37.13;;;14.88;;
75426;SDS011;64007;50.632;13.700;2023-01-26T02:02:18;37.20;;;15.27;;
75426;SDS011;64007;50.632;13.700;2023-01-26T02:04:44;34.72;;;15.30;;
75426;SDS011;64007;50.632;13.700;2023-01-26T02:07:11;36.90;;;15.90;;
75426;SDS011;64007;50.632;13.700;2023-01-26T02:09:37;34.80;;;13.73;;
75426;SDS011;64007;50.632;13.700;2023-01-26T02:12:25;36.50;;;14.82;;
75426;SDS011;64007;50.632;13.700;2023-01-26T02:14:54;36.60;;;14.70;;
75426;SDS011;64007;50.632;13.700;2023-01-26T02:17:22;35.05;;;14.38;;
75426;SDS011;64007;50.632;13.700;2023-01-26T02:20:06;34.17;;;14.80;;
75426;SDS011;64007;50.632;13.700;2023-01-26T02:22:46;33.47;;;14.30;;
75426;SDS011;64007;50.632;13.700;2023-01-26T02:25:30;38.30;;;15.55;;
75426;SDS011;64007;50.632;13.700;2023-01-26T02:28:21;31.30;;;14.20;;
75426;SDS011;64007;50.632;13.700;2023-01-26T02:30:49;40.38;;;15.90;;
75426;SDS011;64007;50.632;13.700;2023-01-26T02:33:18;38.13;;;15.88;;
75426;SDS011;64007;50.632;13.700;2023-01-26T02:35:45;35.65;;;15.57;;
75426;SDS011;64007;50.632;13.700;2023-01-26T02:38:11;36.22;;;15.40;;
75426;SDS011;64007;50.632;13.700;2023-01-26T02:40:39;33.55;;;15.23;;
75426;SDS011;64007;50.632;13.700;2023-01-26T02:43:07;35.72;;;15.10;;
75426;SDS011;64007;50.632;13.700;2023-01-26T02:45:34;33.20;;;15.05;;
75426;SDS011;64007;50.632;13.700;2023-01-26T02:48:00;44.30;;;16.33;;
75426;SDS011;64007;50.632;13.700;2023-01-26T02:50:29;43.88;;;17.05;;
75426;SDS011;64007;50.632;13.700;2023-01-26T02:52:55;37.95;;;16.45;;
75426;SDS011;64007;50.632;13.700;2023-01-26T02:55:21;40.83;;;16.13;;
75426;SDS011;64007;50.632;13.700;2023-01-26T02:57:48;50.33;;;16.15;;
75426;SDS011;64007;50.632;13.700;2023-01-26T03:00:19;38.97;;;15.07;;
75426;SDS011;64007;50.632;13.700;2023-01-26T03:02:46;37.83;;;15.82;;
75426;SDS011;64007;50.632;13.700;2023-01-26T03:05:14;42.55;;;16.40;;
75426;SDS011;64007;50.632;13.700;2023-01-26T03:07:41;41.33;;;16.85;;
75426;SDS011;64007;50.632;13.700;2023-01-26T03:10:06;47.65;;;17.25;;
75426;SDS011;64007;50.632;13.700;2023-01-26T03:12:33;47.70;;;17.55;;
75426;SDS011;64007;50.632;13.700;2023-01-26T03:14:59;42.88;;;16.60;;
75426;SDS011;64007;50.632;13.700;2023-01-26T03:17:44;39.75;;;16.35;;
75426;SDS011;64007;50.632;13.700;2023-01-26T03:20:09;38.40;;;14.82;;
75426;SDS011;64007;50.632;13.700;2023-01-26T03:22:54;39.90;;;16.35;;
75426;SDS011;64007;50.632;13.700;2023-01-26T03:25:39;53.67;;;17.15;;
75426;SDS011;64007;50.632;13.700;2023-01-26T03:28:24;47.55;;;17.52;;
75426;SDS011;64007;50.632;13.700;2023-01-26T03:30:51;42.70;;;16.42;;
75426;SDS011;64007;50.632;13.700;2023-01-26T03:33:20;51.47;;;17.83;;
75426;SDS011;64007;50.632;13.700;2023-01-26T03:35:46;47.83;;;18.38;;
75426;SDS011;64007;50.632;13.700;2023-01-26T03:38:12;62.60;;;18.88;;
75426;SDS011;64007;50.632;13.700;2023-01-26T03:40:37;57.17;;;20.73;;
75426;SDS011;64007;50.632;13.700;2023-01-26T03:43:22;52.85;;;19.00;;
75426;SDS011;64007;50.632;13.700;2023-01-26T03:46:07;55.33;;;19.17;;
75426;SDS011;64007;50.632;13.700;2023-01-26T03:48:51;47.60;;;17.60;;
75426;SDS011;64007;50.632;13.700;2023-01-26T03:51:36;52.50;;;18.60;;
75426;SDS011;64007;50.632;13.700;2023-01-26T03:54:20;52.75;;;19.10;;
75426;SDS011;64007;50.632;13.700;2023-01-26T03:57:04;55.17;;;20.02;;
75426;SDS011;64007;50.632;13.700;2023-01-26T03:59:31;60.65;;;22.83;;
75426;SDS011;64007;50.632;13.700;2023-01-26T04:02:02;65.07;;;20.95;;
75426;SDS011;64007;50.632;13.700;2023-01-26T04:04:54;65.13;;;20.13;;
75426;SDS011;64007;50.632;13.700;2023-01-26T04:07:39;52.20;;;21.05;;
75426;SDS011;64007;50.632;13.700;2023-01-26T04:10:24;54.15;;;20.95;;
75426;SDS011;64007;50.632;13.700;2023-01-26T04:12:50;65.80;;;21.30;;
75426;SDS011;64007;50.632;13.700;2023-01-26T04:15:35;67.93;;;22.90;;
75426;SDS011;64007;50.632;13.700;2023-01-26T04:18:19;58.00;;;22.27;;
75426;SDS011;64007;50.632;13.700;2023-01-26T04:21:04;63.88;;;21.88;;
75426;SDS011;64007;50.632;13.700;2023-01-26T04:23:48;54.67;;;20.33;;
75426;SDS011;64007;50.632;13.700;2023-01-26T04:26:15;62.70;;;22.05;;
75426;SDS011;64007;50.632;13.700;2023-01-26T04:28:41;69.10;;;22.35;;
75426;SDS011;64007;50.632;13.700;2023-01-26T04:31:07;61.47;;;21.45;;
75426;SDS011;64007;50.632;13.700;2023-01-26T04:33:33;56.95;;;20.40;;
75426;SDS011;64007;50.632;13.700;2023-01-26T04:36:05;53.70;;;19.83;;
75426;SDS011;64007;50.632;13.700;2023-01-26T04:38:32;60.63;;;20.10;;
75426;SDS011;64007;50.632;13.700;2023-01-26T04:40:58;66.70;;;21.83;;
75426;SDS011;64007;50.632;13.700;2023-01-26T04:43:24;54.85;;;20.92;;
75426;SDS011;64007;50.632;13.700;2023-01-26T04:46:03;57.90;;;20.85;;
75426;SDS011;64007;50.632;13.700;2023-01-26T04:48:30;56.78;;;21.65;;
75426;SDS011;64007;50.632;13.700;2023-01-26T04:50:58;50.28;;;19.40;;
75426;SDS011;64007;50.632;13.700;2023-01-26T04:53:26;50.08;;;19.15;;
75426;SDS011;64007;50.632;13.700;2023-01-26T04:55:52;53.35;;;19.35;;
75426;SDS011;64007;50.632;13.700;2023-01-26T04:58:18;49.20;;;20.55;;
75426;SDS011;64007;50.632;13.700;2023-01-26T05:00:49;55.20;;;19.65;;
75426;SDS011;64007;50.632;13.700;2023-01-26T05:03:18;64.47;;;21.73;;
75426;SDS011;64007;50.632;13.700;2023-01-26T05:05:44;58.35;;;20.80;;
75426;SDS011;64007;50.632;13.700;2023-01-26T05:08:12;56.72;;;19.75;;
75426;SDS011;64007;50.632;13.700;2023-01-26T05:10:38;61.42;;;21.15;;
75426;SDS011;64007;50.632;13.700;2023-01-26T05:13:03;58.80;;;21.15;;
75426;SDS011;64007;50.632;13.700;2023-01-26T05:15:29;63.80;;;21.70;;
75426;SDS011;64007;50.632;13.700;2023-01-26T05:17:56;58.70;;;20.67;;
75426;SDS011;64007;50.632;13.700;2023-01-26T05:20:24;60.17;;;20.80;;
75426;SDS011;64007;50.632;13.700;2023-01-26T05:22:49;56.88;;;20.00;;
75426;SDS011;64007;50.632;13.700;2023-01-26T05:25:16;50.58;;;17.10;;
75426;SDS011;64007;50.632;13.700;2023-01-26T05:27:41;43.85;;;16.25;;
75426;SDS011;64007;50.632;13.700;2023-01-26T05:30:07;45.78;;;16.08;;
75426;SDS011;64007;50.632;13.700;2023-01-26T05:32:33;42.22;;;15.70;;
75426;SDS011;64007;50.632;13.700;2023-01-26T05:35:00;49.50;;;15.85;;
75426;SDS011;64007;50.632;13.700;2023-01-26T05:37:26;45.65;;;15.77;;
75426;SDS011;64007;50.632;13.700;2023-01-26T05:39:53;44.35;;;14.93;;
75426;SDS011;64007;50.632;13.700;2023-01-26T05:42:18;41.40;;;16.02;;
75426;SDS011;64007;50.632;13.700;2023-01-26T05:44:44;47.63;;;16.10;;
75426;SDS011;64007;50.632;13.700;2023-01-26T05:47:10;42.65;;;15.90;;
75426;SDS011;64007;50.632;13.700;2023-01-26T05:49:36;45.55;;;16.08;;
75426;SDS011;64007;50.632;13.700;2023-01-26T05:52:11;39.17;;;15.13;;
75426;SDS011;64007;50.632;13.700;2023-01-26T05:54:39;49.75;;;16.48;;
75426;SDS011;64007;50.632;13.700;2023-01-26T05:57:04;41.33;;;14.68;;
75426;SDS011;64007;50.632;13.700;2023-01-26T05:59:30;40.25;;;14.85;;
75426;SDS011;64007;50.632;13.700;2023-01-26T06:01:56;39.80;;;15.48;;
75426;SDS011;64007;50.632;13.700;2023-01-26T06:04:22;40.30;;;14.63;;
75426;SDS011;64007;50.632;13.700;2023-01-26T06:06:51;44.53;;;13.95;;
75426;SDS011;64007;50.632;13.700;2023-01-26T06:09:18;37.53;;;13.65;;
75426;SDS011;64007;50.632;13.700;2023-01-26T06:11:44;37.40;;;13.60;;
75426;SDS011;64007;50.632;13.700;2023-01-26T06:14:10;41.78;;;14.63;;
75426;SDS011;64007;50.632;13.700;2023-01-26T06:16:36;45.58;;;14.77;;
75426;SDS011;64007;50.632;13.700;2023-01-26T06:19:02;44.47;;;15.32;;
75426;SDS011;64007;50.632;13.700;2023-01-26T06:21:28;47.15;;;16.73;;
75426;SDS011;64007;50.632;13.700;2023-01-26T06:23:53;40.45;;;15.65;;
75426;SDS011;64007;50.632;13.700;2023-01-26T06:26:19;48.65;;;16.95;;
75426;SDS011;64007;50.632;13.700;2023-01-26T06:28:45;39.72;;;13.90;;
75426;SDS011;64007;50.632;13.700;2023-01-26T06:31:10;42.28;;;15.60;;
75426;SDS011;64007;50.632;13.700;2023-01-26T06:33:37;46.05;;;15.00;;
75426;SDS011;64007;50.632;13.700;2023-01-26T06:36:13;49.78;;;16.05;;
75426;SDS011;64007;50.632;13.700;2023-01-26T06:38:44;38.85;;;14.15;;
75426;SDS011;64007;50.632;13.700;2023-01-26T06:43:37;36.22;;;12.60;;
75426;SDS011;64007;50.632;13.700;2023-01-26T06:46:03;48.05;;;13.45;;
75426;SDS011;64007;50.632;13.700;2023-01-26T06:48:32;36.13;;;13.88;;
75426;SDS011;64007;50.632;13.700;2023-01-26T06:53:41;43.42;;;15.70;;
75426;SDS011;64007;50.632;13.700;2023-01-26T06:56:08;41.63;;;15.38;;
75426;SDS011;64007;50.632;13.700;2023-01-26T06:58:34;40.83;;;14.90;;
75426;SDS011;64007;50.632;13.700;2023-01-26T07:00:59;34.83;;;13.30;;
75426;SDS011;64007;50.632;13.700;2023-01-26T07:03:25;39.13;;;14.35;;
75426;SDS011;64007;50.632;13.700;2023-01-26T07:05:51;41.90;;;15.00;;
75426;SDS011;64007;50.632;13.700;2023-01-26T07:08:17;36.70;;;14.02;;
75426;SDS011;64007;50.632;13.700;2023-01-26T07:10:42;34.20;;;14.73;;
75426;SDS011;64007;50.632;13.700;2023-01-26T07:13:08;38.33;;;14.45;;
75426;SDS011;64007;50.632;13.700;2023-01-26T07:15:34;45.85;;;15.73;;
75426;SDS011;64007;50.632;13.700;2023-01-26T07:18:00;34.63;;;14.18;;
75426;SDS011;64007;50.632;13.700;2023-01-26T07:20:25;43.67;;;16.50;;
75426;SDS011;64007;50.632;13.700;2023-01-26T07:22:51;41.33;;;15.15;;
75426;SDS011;64007;50.632;13.700;2023-01-26T07:25:17;34.47;;;14.40;;
75426;SDS011;64007;50.632;13.700;2023-01-26T07:27:44;40.70;;;15.40;;
75426;SDS011;64007;50.632;13.700;2023-01-26T07:30:10;45.88;;;14.07;;
75426;SDS011;64007;50.632;13.700;2023-01-26T07:32:38;44.08;;;15.23;;
75426;SDS011;64007;50.632;13.700;2023-01-26T07:35:04;46.67;;;17.15;;
75426;SDS011;64007;50.632;13.700;2023-01-26T07:37:31;47.25;;;16.30;;
75426;SDS011;64007;50.632;13.700;2023-01-26T07:39:56;44.75;;;16.92;;
75426;SDS011;64007;50.632;13.700;2023-01-26T07:42:22;38.70;;;16.20;;
75426;SDS011;64007;50.632;13.700;2023-01-26T07:44:48;41.13;;;15.50;;
75426;SDS011;64007;50.632;13.700;2023-01-26T07:47:13;39.30;;;16.08;;
75426;SDS011;64007;50.632;13.700;2023-01-26T07:49:40;49.85;;;15.55;;
75426;SDS011;64007;50.632;13.700;2023-01-26T07:52:05;46.25;;;17.02;;
75426;SDS011;64007;50.632;13.700;2023-01-26T07:54:32;42.38;;;15.73;;
75426;SDS011;64007;50.632;13.700;2023-01-26T07:56:58;44.80;;;16.55;;
75426;SDS011;64007;50.632;13.700;2023-01-26T07:59:24;43.53;;;16.33;;
75426;SDS011;64007;50.632;13.700;2023-01-26T08:01:50;44.13;;;16.65;;
75426;SDS011;64007;50.632;13.700;2023-01-26T08:04:17;50.47;;;16.83;;
75426;SDS011;64007;50.632;13.700;2023-01-26T08:06:43;30.25;;;11.57;;
75426;SDS011;64007;50.632;13.700;2023-01-26T08:09:09;34.53;;;11.50;;
75426;SDS011;64007;50.632;13.700;2023-01-26T08:11:35;26.67;;;10.52;;
75426;SDS011;64007;50.632;13.700;2023-01-26T08:14:00;29.15;;;10.55;;
75426;SDS011;64007;50.632;13.700;2023-01-26T08:16:26;25.00;;;10.27;;
75426;SDS011;64007;50.632;13.700;2023-01-26T08:18:52;33.97;;;11.57;;
75426;SDS011;64007;50.632;13.700;2023-01-26T08:21:18;30.50;;;11.05;;
75426;SDS011;64007;50.632;13.700;2023-01-26T08:23:48;26.63;;;10.15;;
75426;SDS011;64007;50.632;13.700;2023-01-26T08:26:15;22.83;;;9.48;;
75426;SDS011;64007;50.632;13.700;2023-01-26T08:28:42;26.15;;;10.55;;
75426;SDS011;64007;50.632;13.700;2023-01-26T08:31:10;22.23;;;10.25;;
75426;SDS011;64007;50.632;13.700;2023-01-26T08:33:37;25.98;;;10.60;;
75426;SDS011;64007;50.632;13.700;2023-01-26T08:36:05;26.95;;;10.80;;
75426;SDS011;64007;50.632;13.700;2023-01-26T08:38:32;29.25;;;11.60;;
75426;SDS011;64007;50.632;13.700;2023-01-26T08:40:59;27.95;;;10.73;;
75426;SDS011;64007;50.632;13.700;2023-01-26T08:43:26;28.25;;;11.05;;
75426;SDS011;64007;50.632;13.700;2023-01-26T08:45:52;31.42;;;10.75;;
75426;SDS011;64007;50.632;13.700;2023-01-26T08:48:18;31.75;;;11.45;;
75426;SDS011;64007;50.632;13.700;2023-01-26T08:50:44;26.40;;;10.18;;
75426;SDS011;64007;50.632;13.700;2023-01-26T08:53:10;26.45;;;11.07;;
75426;SDS011;64007;50.632;13.700;2023-01-26T08:55:35;26.63;;;10.77;;
75426;SDS011;64007;50.632;13.700;2023-01-26T08:58:02;26.17;;;10.63;;
75426;SDS011;64007;50.632;13.700;2023-01-26T09:00:28;29.38;;;11.95;;
75426;SDS011;64007;50.632;13.700;2023-01-26T09:02:58;29.75;;;11.25;;
75426;SDS011;64007;50.632;13.700;2023-01-26T09:05:24;31.17;;;12.30;;
75426;SDS011;64007;50.632;13.700;2023-01-26T09:07:50;34.97;;;12.68;;
75426;SDS011;64007;50.632;13.700;2023-01-26T09:10:16;25.63;;;11.30;;
75426;SDS011;64007;50.632;13.700;2023-01-26T09:12:42;28.77;;;12.60;;
75426;SDS011;64007;50.632;13.700;2023-01-26T09:15:08;31.98;;;12.98;;
75426;SDS011;64007;50.632;13.700;2023-01-26T09:17:34;30.70;;;12.27;;
75426;SDS011;64007;50.632;13.700;2023-01-26T09:20:00;30.08;;;12.80;;
75426;SDS011;64007;50.632;13.700;2023-01-26T09:22:26;29.08;;;12.30;;
75426;SDS011;64007;50.632;13.700;2023-01-26T09:24:51;34.08;;;12.60;;
75426;SDS011;64007;50.632;13.700;2023-01-26T09:27:17;35.50;;;13.00;;
75426;SDS011;64007;50.632;13.700;2023-01-26T09:29:43;38.00;;;14.40;;
75426;SDS011;64007;50.632;13.700;2023-01-26T09:32:09;24.10;;;9.73;;
75426;SDS011;64007;50.632;13.700;2023-01-26T09:34:34;29.20;;;11.88;;
75426;SDS011;64007;50.632;13.700;2023-01-26T09:37:00;28.85;;;10.95;;
75426;SDS011;64007;50.632;13.700;2023-01-26T09:39:26;29.67;;;10.75;;
75426;SDS011;64007;50.632;13.700;2023-01-26T09:41:57;30.08;;;11.98;;
75426;SDS011;64007;50.632;13.700;2023-01-26T09:44:27;31.33;;;13.20;;
75426;SDS011;64007;50.632;13.700;2023-01-26T09:52:37;30.33;;;13.10;;
75426;SDS011;64007;50.632;13.700;2023-01-26T09:55:13;38.20;;;14.73;;
75426;SDS011;64007;50.632;13.700;2023-01-26T09:57:48;37.33;;;13.98;;
75426;SDS011;64007;50.632;13.700;2023-01-26T10:00:19;33.08;;;14.18;;
75426;SDS011;64007;50.632;13.700;2023-01-26T10:05:43;32.38;;;12.60;;
75426;SDS011;64007;50.632;13.700;2023-01-26T10:08:17;30.70;;;13.52;;
75426;SDS011;64007;50.632;13.700;2023-01-26T10:10:45;36.55;;;14.45;;
75426;SDS011;64007;50.632;13.700;2023-01-26T10:13:14;31.75;;;14.43;;
75426;SDS011;64007;50.632;13.700;2023-01-26T10:15:42;39.65;;;14.35;;
75426;SDS011;64007;50.632;13.700;2023-01-26T10:18:23;32.22;;;13.70;;
75426;SDS011;64007;50.632;13.700;2023-01-26T10:20:53;29.27;;;12.68;;
75426;SDS011;64007;50.632;13.700;2023-01-26T10:23:22;35.22;;;12.45;;
75426;SDS011;64007;50.632;13.700;2023-01-26T10:26:18;33.30;;;13.60;;
75426;SDS011;64007;50.632;13.700;2023-01-26T10:28:47;30.88;;;13.38;;
75426;SDS011;64007;50.632;13.700;2023-01-26T10:31:18;25.88;;;11.48;;
75426;SDS011;64007;50.632;13.700;2023-01-26T10:33:55;28.02;;;9.77;;
75426;SDS011;64007;50.632;13.700;2023-01-26T10:36:26;21.17;;;10.23;;
75426;SDS011;64007;50.632;13.700;2023-01-26T10:38:54;27.80;;;10.32;;
75426;SDS011;64007;50.632;13.700;2023-01-26T10:41:31;32.83;;;12.65;;
75426;SDS011;64007;50.632;13.700;2023-01-26T10:43:58;26.60;;;11.90;;
75426;SDS011;64007;50.632;13.700;2023-01-26T10:46:37;28.17;;;11.27;;
75426;SDS011;64007;50.632;13.700;2023-01-26T10:51:33;24.08;;;11.40;;
75426;SDS011;64007;50.632;13.700;2023-01-26T10:56:57;26.42;;;9.63;;
75426;SDS011;64007;50.632;13.700;2023-01-26T10:59:26;21.42;;;9.40;;
75426;SDS011;64007;50.632;13.700;2023-01-26T11:01:54;19.30;;;8.82;;
75426;SDS011;64007;50.632;13.700;2023-01-26T11:04:22;20.52;;;9.13;;
75426;SDS011;64007;50.632;13.700;2023-01-26T11:06:49;26.10;;;10.70;;
75426;SDS011;64007;50.632;13.700;2023-01-26T11:09:17;27.48;;;10.73;;
75426;SDS011;64007;50.632;13.700;2023-01-26T11:12:02;27.73;;;11.40;;
75426;SDS011;64007;50.632;13.700;2023-01-26T11:14:31;30.52;;;12.35;;
75426;SDS011;64007;50.632;13.700;2023-01-26T11:22:08;21.35;;;10.40;;
75426;SDS011;64007;50.632;13.700;2023-01-26T11:30:10;16.00;;;6.90;;
75426;SDS011;64007;50.632;13.700;2023-01-26T11:35:49;11.65;;;5.35;;
75426;SDS011;64007;50.632;13.700;2023-01-26T11:46:32;16.63;;;7.00;;
75426;SDS011;64007;50.632;13.700;2023-01-26T11:52:26;16.88;;;8.18;;
75426;SDS011;64007;50.632;13.700;2023-01-26T11:55:12;12.18;;;5.53;;
75426;SDS011;64007;50.632;13.700;2023-01-26T12:00:20;18.77;;;8.07;;
75426;SDS011;64007;50.632;13.700;2023-01-26T12:02:57;17.90;;;8.23;;
75426;SDS011;64007;50.632;13.700;2023-01-26T12:05:33;14.38;;;6.97;;
75426;SDS011;64007;50.632;13.700;2023-01-26T12:08:21;18.80;;;6.80;;
75426;SDS011;64007;50.632;13.700;2023-01-26T12:14:35;15.13;;;7.25;;
75426;SDS011;64007;50.632;13.700;2023-01-26T12:22:43;12.82;;;5.90;;
75426;SDS011;64007;50.632;13.700;2023-01-26T12:24:57;14.45;;;6.47;;
75426;SDS011;64007;50.632;13.700;2023-01-26T12:27:46;15.45;;;6.63;;
75426;SDS011;64007;50.632;13.700;2023-01-26T12:30:25;11.65;;;6.18;;
75426;SDS011;64007;50.632;13.700;2023-01-26T12:32:54;13.38;;;5.97;;
75426;SDS011;64007;50.632;13.700;2023-01-26T12:35:26;14.30;;;6.78;;
75426;SDS011;64007;50.632;13.700;2023-01-26T12:38:06;12.15;;;5.72;;
75426;SDS011;64007;50.632;13.700;2023-01-26T12:43:42;10.20;;;5.28;;
75426;SDS011;64007;50.632;13.700;2023-01-26T12:46:19;10.98;;;5.43;;
75426;SDS011;64007;50.632;13.700;2023-01-26T12:48:49;15.63;;;6.55;;
75426;SDS011;64007;50.632;13.700;2023-01-26T12:51:28;10.02;;;5.10;;
75426;SDS011;64007;50.632;13.700;2023-01-26T12:56:39;10.27;;;5.00;;
75426;SDS011;64007;50.632;13.700;2023-01-26T13:01:56;10.32;;;4.57;;
75426;SDS011;64007;50.632;13.700;2023-01-26T13:04:22;7.82;;;4.13;;
75426;SDS011;64007;50.632;13.700;2023-01-26T13:07:01;8.10;;;4.70;;
75426;SDS011;64007;50.632;13.700;2023-01-26T13:09:28;10.07;;;4.70;;
75426;SDS011;64007;50.632;13.700;2023-01-26T13:11:57;9.82;;;5.05;;
75426;SDS011;64007;50.632;13.700;2023-01-26T13:24:43;11.30;;;5.50;;
75426;SDS011;64007;50.632;13.700;2023-01-26T13:30:01;9.55;;;4.70;;
75426;SDS011;64007;50.632;13.700;2023-01-26T13:35:00;11.52;;;5.03;;
75426;SDS011;64007;50.632;13.700;2023-01-26T13:37:31;10.25;;;5.22;;
75426;SDS011;64007;50.632;13.700;2023-01-26T13:40:22;10.40;;;4.97;;
75426;SDS011;64007;50.632;13.700;2023-01-26T13:51:29;11.32;;;4.60;;
75426;SDS011;64007;50.632;13.700;2023-01-26T13:59:30;9.43;;;4.80;;
75426;SDS011;64007;50.632;13.700;2023-01-26T14:01:49;8.73;;;4.90;;
75426;SDS011;64007;50.632;13.700;2023-01-26T14:04:23;8.73;;;4.65;;
75426;SDS011;64007;50.632;13.700;2023-01-26T14:09:24;11.48;;;5.10;;
75426;SDS011;64007;50.632;13.700;2023-01-26T14:11:59;10.40;;;5.03;;
75426;SDS011;64007;50.632;13.700;2023-01-26T14:14:28;10.07;;;5.00;;
75426;SDS011;64007;50.632;13.700;2023-01-26T14:16:57;11.23;;;4.75;;
75426;SDS011;64007;50.632;13.700;2023-01-26T14:19:25;11.93;;;6.50;;
75426;SDS011;64007;50.632;13.700;2023-01-26T14:21:52;12.80;;;6.10;;
75426;SDS011;64007;50.632;13.700;2023-01-26T14:24:31;11.43;;;5.15;;
75426;SDS011;64007;50.632;13.700;2023-01-26T14:26:59;11.45;;;5.68;;
75426;SDS011;64007;50.632;13.700;2023-01-26T14:29:26;11.13;;;5.60;;
75426;SDS011;64007;50.632;13.700;2023-01-26T14:31:55;11.25;;;5.80;;
75426;SDS011;64007;50.632;13.700;2023-01-26T14:34:23;10.32;;;4.97;;
75426;SDS011;64007;50.632;13.700;2023-01-26T14:37:09;11.20;;;5.40;;
75426;SDS011;64007;50.632;13.700;2023-01-26T14:39:38;11.63;;;5.53;;
75426;SDS011;64007;50.632;13.700;2023-01-26T14:42:04;14.05;;;7.32;;
75426;SDS011;64007;50.632;13.700;2023-01-26T14:44:31;17.83;;;9.40;;
75426;SDS011;64007;50.632;13.700;2023-01-26T14:52:44;27.27;;;12.88;;
75426;SDS011;64007;50.632;13.700;2023-01-26T14:57:53;13.07;;;6.13;;
75426;SDS011;64007;50.632;13.700;2023-01-26T15:00:24;22.25;;;8.70;;
75426;SDS011;64007;50.632;13.700;2023-01-26T15:02:54;12.30;;;6.10;;
75426;SDS011;64007;50.632;13.700;2023-01-26T15:05:29;12.05;;;5.55;;
75426;SDS011;64007;50.632;13.700;2023-01-26T15:07:58;15.07;;;7.13;;
75426;SDS011;64007;50.632;13.700;2023-01-26T15:13:20;13.82;;;7.30;;
75426;SDS011;64007;50.632;13.700;2023-01-26T15:16:22;13.13;;;6.32;;
75426;SDS011;64007;50.632;13.700;2023-01-26T15:18:44;13.50;;;6.45;;
75426;SDS011;64007;50.632;13.700;2023-01-26T15:21:18;17.73;;;8.13;;
75426;SDS011;64007;50.632;13.700;2023-01-26T15:23:49;60.72;;;26.35;;
75426;SDS011;64007;50.632;13.700;2023-01-26T15:26:29;48.60;;;21.33;;
75426;SDS011;64007;50.632;13.700;2023-01-26T15:28:58;33.47;;;14.88;;
75426;SDS011;64007;50.632;13.700;2023-01-26T15:31:49;51.47;;;22.48;;
75426;SDS011;64007;50.632;13.700;2023-01-26T15:36:55;25.45;;;12.32;;
75426;SDS011;64007;50.632;13.700;2023-01-26T15:39:24;27.02;;;12.43;;
75426;SDS011;64007;50.632;13.700;2023-01-26T15:44:38;19.85;;;9.68;;
75426;SDS011;64007;50.632;13.700;2023-01-26T15:47:08;22.45;;;9.57;;
75426;SDS011;64007;50.632;13.700;2023-01-26T15:49:35;18.88;;;8.95;;
75426;SDS011;64007;50.632;13.700;2023-01-26T15:52:01;17.05;;;8.68;;
75426;SDS011;64007;50.632;13.700;2023-01-26T15:54:27;20.15;;;8.88;;
75426;SDS011;64007;50.632;13.700;2023-01-26T15:56:53;20.60;;;9.40;;
75426;SDS011;64007;50.632;13.700;2023-01-26T15:59:18;25.40;;;10.45;;
75426;SDS011;64007;50.632;13.700;2023-01-26T16:01:44;22.48;;;10.45;;
75426;SDS011;64007;50.632;13.700;2023-01-26T16:04:12;18.30;;;9.18;;
75426;SDS011;64007;50.632;13.700;2023-01-26T16:06:38;18.38;;;7.80;;
75426;SDS011;64007;50.632;13.700;2023-01-26T16:09:04;19.95;;;8.40;;
75426;SDS011;64007;50.632;13.700;2023-01-26T16:11:32;15.20;;;7.50;;
75426;SDS011;64007;50.632;13.700;2023-01-26T16:14:01;17.27;;;7.90;;
75426;SDS011;64007;50.632;13.700;2023-01-26T16:16:30;14.98;;;7.68;;
75426;SDS011;64007;50.632;13.700;2023-01-26T16:18:56;17.05;;;7.53;;